Time;durP1;ratioP1;P1;durP2;ratioP2;P2;SDS_P1;SDS_P2;PMS_P1;PMS_P2;Temp;Humidity;BMP_temperature;BMP_pressure;BME280_temperature;BME280_humidity;BME280_pressure;Samples;Min_cycle;Max_cycle;Signal;HPM_P1;HPM_P2
2021/04/26 00:01:06;;;;;;;9.67;6.67;;;1.50;90.00;;;;;;5094044;28;20207;-83
2021/04/26 00:03:33;;;;;;;11.43;8.40;;;1.50;90.00;;;;;;5071063;28;20257;-82
2021/04/26 00:06:01;;;;;;;14.53;10.43;;;1.50;90.20;;;;;;5033050;28;20240;-83
2021/04/26 00:08:29;;;;;;;15.20;12.17;;;1.40;89.70;;;;;;5076023;27;20208;-81
2021/04/26 00:10:57;;;;;;;17.50;13.40;;;1.50;90.10;;;;;;5067594;28;20209;-82
2021/04/26 00:13:25;;;;;;;14.43;10.77;;;1.40;90.40;;;;;;5068016;28;20220;-83
2021/04/26 00:15:53;;;;;;;14.07;10.07;;;1.40;90.20;;;;;;5011727;28;20238;-82
2021/04/26 00:18:20;;;;;;;21.63;15.13;;;1.30;90.00;;;;;;5064996;28;20583;-83
2021/04/26 00:20:48;;;;;;;17.43;13.43;;;1.40;90.40;;;;;;5067942;28;20211;-83
2021/04/26 00:23:16;;;;;;;18.87;12.47;;;1.30;91.20;;;;;;5069080;28;20230;-83
2021/04/26 00:25:43;;;;;;;19.43;13.80;;;1.30;91.10;;;;;;5032128;28;20343;-81
2021/04/26 00:28:12;;;;;;;17.33;12.53;;;1.30;91.60;;;;;;5067509;28;20238;-83
2021/04/26 00:30:39;;;;;;;14.03;10.40;;;1.40;91.60;;;;;;5067298;28;20557;-82
2021/04/26 00:33:07;;;;;;;9.47;7.30;;;1.50;91.80;;;;;;5070338;28;20233;-81
2021/04/26 00:35:35;;;;;;;9.57;7.43;;;1.70;91.70;;;;;;5029566;28;20239;-82
2021/04/26 00:38:06;;;;;;;12.60;8.23;;;1.90;90.90;;;;;;5068968;28;20808;-83
2021/04/26 00:40:34;;;;;;;10.57;8.63;;;2.00;90.20;;;;;;5065048;28;20234;-83
2021/04/26 00:43:01;;;;;;;9.90;7.17;;;2.00;89.70;;;;;;5073761;28;20220;-83
2021/04/26 00:45:30;;;;;;;10.80;7.90;;;1.90;89.30;;;;;;5030103;28;20212;-83
2021/04/26 00:47:58;;;;;;;12.03;7.40;;;1.90;89.30;;;;;;5068698;28;20204;-83
2021/04/26 00:50:28;;;;;;;13.23;8.13;;;1.80;89.30;;;;;;5068250;28;20385;-83
2021/04/26 00:52:56;;;;;;;10.07;6.50;;;1.80;89.30;;;;;;5067497;28;20764;-82
2021/04/26 00:55:26;;;;;;;11.30;7.33;;;1.60;89.10;;;;;;5053479;28;20212;-83
2021/04/26 00:57:58;;;;;;;8.67;6.93;;;1.50;89.30;;;;;;5078466;28;20525;-82
2021/04/26 01:00:27;;;;;;;11.90;8.33;;;1.60;90.30;;;;;;5068663;28;20207;-83
2021/04/26 01:02:56;;;;;;;9.97;8.00;;;1.70;90.60;;;;;;5069135;28;20197;-83
2021/04/26 01:05:28;;;;;;;14.67;8.93;;;1.50;90.60;;;;;;5034352;28;20216;-84
2021/04/26 01:07:56;;;;;;;12.67;8.80;;;1.40;90.40;;;;;;5076657;28;20201;-83
2021/04/26 01:10:26;;;;;;;14.90;8.90;;;1.30;90.60;;;;;;5076718;28;20623;-81
2021/04/26 01:13:39;;;;;;;12.53;8.97;;;1.20;90.80;;;;;;5085279;28;20184;-83
2021/04/26 01:16:12;;;;;;;10.87;8.50;;;1.10;91.40;;;;;;5014832;28;20232;-82
2021/04/26 01:18:48;;;;;;;11.23;8.70;;;0.90;91.40;;;;;;5055384;28;20406;-83
2021/04/26 01:21:53;;;;;;;11.30;8.47;;;0.80;91.20;;;;;;5073488;28;20241;-82
2021/04/26 01:25:00;;;;;;;11.77;7.70;;;0.90;92.80;;;;;;5040456;28;20226;-84
2021/04/26 01:27:44;;;;;;;14.07;9.13;;;1.00;94.20;;;;;;5047121;28;20684;-81
2021/04/26 01:30:14;;;;;;;13.50;9.07;;;0.90;94.10;;;;;;5068497;28;20222;-81
2021/04/26 01:32:46;;;;;;;14.20;9.10;;;1.10;94.80;;;;;;5056281;28;20201;-82
2021/04/26 01:35:16;;;;;;;12.13;8.63;;;1.30;94.80;;;;;;5023619;28;20227;-84
2021/04/26 01:37:46;;;;;;;12.37;8.83;;;1.30;93.80;;;;;;5043527;28;20228;-82
2021/04/26 01:40:15;;;;;;;13.27;9.17;;;1.30;93.60;;;;;;5053123;28;20345;-82
2021/04/26 01:42:46;;;;;;;12.80;9.03;;;1.40;93.90;;;;;;5055835;28;20204;-82
2021/04/26 01:45:16;;;;;;;12.57;8.97;;;1.40;93.90;;;;;;5026925;28;20231;-81
2021/04/26 01:47:47;;;;;;;13.40;8.93;;;1.40;93.60;;;;;;5021847;28;20222;-83
2021/04/26 01:50:16;;;;;;;15.17;9.77;;;1.40;92.90;;;;;;5057713;28;20298;-82
2021/04/26 01:52:45;;;;;;;13.23;9.07;;;1.30;92.90;;;;;;5057792;28;20209;-83
2021/04/26 01:55:13;;;;;;;12.40;9.10;;;1.40;93.70;;;;;;5033372;28;20824;-82
2021/04/26 01:57:43;;;;;;;11.23;8.90;;;1.50;93.70;;;;;;5049555;28;20341;-82
2021/04/26 02:00:14;;;;;;;11.93;8.97;;;1.60;93.20;;;;;;5069766;28;20222;-82
2021/04/26 02:02:44;;;;;;;12.80;8.87;;;1.70;93.00;;;;;;5063549;28;20209;-82
2021/04/26 02:05:15;;;;;;;14.07;8.90;;;1.80;92.20;;;;;;5029007;28;20224;-82
2021/04/26 02:07:45;;;;;;;13.83;10.27;;;1.90;91.50;;;;;;5049357;28;20682;-83
2021/04/26 02:10:14;;;;;;;14.03;9.10;;;2.00;91.00;;;;;;5054058;28;20556;-83
2021/04/26 02:12:43;;;;;;;11.80;9.30;;;2.10;90.50;;;;;;5060310;28;20209;-81
2021/04/26 02:15:13;;;;;;;14.23;9.70;;;2.10;90.40;;;;;;5031309;28;20236;-82
2021/04/26 02:17:42;;;;;;;11.00;9.57;;;2.00;90.30;;;;;;5046977;28;20221;-82
2021/04/26 02:20:13;;;;;;;13.57;8.83;;;2.10;90.30;;;;;;5073517;28;20193;-81
2021/04/26 02:22:42;;;;;;;16.73;9.23;;;2.10;90.40;;;;;;5064765;28;20205;-83
2021/04/26 02:25:12;;;;;;;14.53;10.30;;;2.20;90.20;;;;;;5029424;28;20213;-82
2021/04/26 02:27:40;;;;;;;12.77;10.43;;;2.20;90.10;;;;;;5036714;28;21018;-83
2021/04/26 02:30:10;;;;;;;17.03;10.47;;;2.30;89.40;;;;;;5064394;28;20214;-83
2021/04/26 02:32:46;;;;;;;16.40;10.57;;;2.30;89.00;;;;;;5058505;28;20199;-83
2021/04/26 02:35:20;;;;;;;15.37;9.80;;;2.30;88.90;;;;;;5033773;28;20260;-81
2021/04/26 02:37:53;;;;;;;18.53;10.60;;;2.30;88.60;;;;;;5045737;28;21008;-82
2021/04/26 02:40:24;;;;;;;14.60;10.40;;;2.30;88.60;;;;;;5059807;28;20318;-83
2021/04/26 02:42:56;;;;;;;14.43;9.77;;;2.30;88.10;;;;;;5060585;28;20476;-83
2021/04/26 02:45:28;;;;;;;15.00;10.17;;;2.40;87.70;;;;;;5031184;28;21348;-84
2021/04/26 02:47:57;;;;;;;14.50;10.00;;;2.40;87.30;;;;;;5048128;28;20266;-83
2021/04/26 02:50:28;;;;;;;15.93;11.00;;;2.40;87.30;;;;;;5063007;28;20233;-83
2021/04/26 02:52:55;;;;;;;15.23;10.47;;;2.40;87.10;;;;;;5061089;28;20712;-82
2021/04/26 02:55:25;;;;;;;16.70;10.33;;;2.40;87.10;;;;;;5027071;28;20251;-80
2021/04/26 02:57:55;;;;;;;18.60;10.87;;;2.40;87.20;;;;;;5045058;28;20239;-83
2021/04/26 03:00:25;;;;;;;15.97;11.20;;;2.30;87.00;;;;;;5054724;28;20529;-83
2021/04/26 03:02:52;;;;;;;17.50;11.53;;;2.30;87.30;;;;;;5067902;28;20295;-83
2021/04/26 03:05:21;;;;;;;16.63;10.50;;;2.30;87.40;;;;;;5035292;28;20224;-82
2021/04/26 03:07:50;;;;;;;19.87;11.57;;;2.40;87.40;;;;;;5062434;28;20224;-82
2021/04/26 03:10:19;;;;;;;14.23;10.67;;;2.30;87.30;;;;;;5072485;28;20208;-81
2021/04/26 03:12:49;;;;;;;18.17;11.00;;;2.30;87.50;;;;;;5061146;28;20209;-82
2021/04/26 03:15:19;;;;;;;15.57;10.00;;;2.20;87.70;;;;;;5052969;28;20721;-83
2021/04/26 03:17:48;;;;;;;16.77;10.17;;;2.20;87.30;;;;;;5056041;28;20228;-82
2021/04/26 03:20:18;;;;;;;14.67;10.37;;;2.20;87.50;;;;;;5070967;28;20661;-83
2021/04/26 03:22:48;;;;;;;17.40;10.40;;;2.10;87.80;;;;;;5065453;28;20568;-84
2021/04/26 03:25:19;;;;;;;17.90;10.60;;;2.10;87.80;;;;;;5048402;28;20225;-80
2021/04/26 03:27:52;;;;;;;15.53;10.00;;;2.10;88.10;;;;;;5074359;28;20463;-82
2021/04/26 03:30:23;;;;;;;15.67;9.80;;;2.10;87.50;;;;;;5070171;28;20213;-83
2021/04/26 03:32:51;;;;;;;14.40;9.57;;;2.20;87.50;;;;;;5066726;28;20316;-83
2021/04/26 03:35:20;;;;;;;16.90;9.43;;;2.20;87.40;;;;;;5048367;28;20481;-81
2021/04/26 03:37:53;;;;;;;16.30;9.97;;;2.10;87.00;;;;;;5077384;28;20204;-84
2021/04/26 03:40:23;;;;;;;15.07;9.33;;;2.10;87.00;;;;;;5077676;28;20201;-81
2021/04/26 03:42:54;;;;;;;14.37;9.53;;;2.20;87.00;;;;;;5072468;28;21147;-83
2021/04/26 03:45:28;;;;;;;14.77;10.03;;;2.10;87.20;;;;;;5057099;28;20225;-82
2021/04/26 03:47:57;;;;;;;16.33;9.60;;;2.10;87.10;;;;;;5073453;28;20201;-83
2021/04/26 03:50:27;;;;;;;15.37;9.67;;;2.30;86.90;;;;;;5072129;28;20452;-82
2021/04/26 03:52:55;;;;;;;15.03;9.60;;;2.20;86.90;;;;;;5073376;28;20201;-81
2021/04/26 03:55:25;;;;;;;14.53;9.30;;;2.30;87.00;;;;;;5036396;28;20229;-83
2021/04/26 03:57:53;;;;;;;14.80;9.63;;;2.30;87.00;;;;;;5056063;28;20221;-83
2021/04/26 04:00:23;;;;;;;12.93;8.90;;;2.40;86.40;;;;;;5063450;28;20889;-82
2021/04/26 04:02:51;;;;;;;16.17;9.70;;;2.40;86.10;;;;;;5074458;28;20207;-83
2021/04/26 04:05:20;;;;;;;12.97;9.27;;;2.40;85.90;;;;;;5042752;28;20482;-82
2021/04/26 04:07:49;;;;;;;14.20;8.90;;;2.40;86.00;;;;;;5064566;28;20523;-83
2021/04/26 04:10:18;;;;;;;19.77;15.57;;;2.40;86.10;;;;;;5081199;28;20541;-82
2021/04/26 04:12:46;;;;;;;21.90;18.40;;;2.50;85.80;;;;;;5077805;28;20201;-83
2021/04/26 04:15:14;;;;;;;29.43;24.40;;;2.50;85.60;;;;;;5060523;28;20233;-83
2021/04/26 04:17:42;;;;;;;29.03;23.40;;;2.50;85.00;;;;;;5071813;28;20229;-82
2021/04/26 04:20:11;;;;;;;29.90;24.27;;;2.40;85.20;;;;;;5090305;28;20194;-84
2021/04/26 04:22:40;;;;;;;29.60;24.40;;;2.30;85.20;;;;;;5086626;27;20217;-83
2021/04/26 04:25:10;;;;;;;27.80;23.33;;;2.30;85.20;;;;;;5053275;28;20217;-83
2021/04/26 04:27:39;;;;;;;20.60;15.97;;;2.30;85.50;;;;;;5068304;28;20228;-83
2021/04/26 04:30:11;;;;;;;22.47;16.00;;;2.50;85.10;;;;;;5076574;28;20205;-84
2021/04/26 04:32:39;;;;;;;20.57;16.80;;;2.50;84.90;;;;;;5079677;28;20198;-83
2021/04/26 04:35:09;;;;;;;24.43;18.47;;;2.70;85.00;;;;;;5060902;28;20209;-83
2021/04/26 04:37:36;;;;;;;16.60;13.37;;;2.50;84.60;;;;;;5064112;28;20221;-85
2021/04/26 04:40:05;;;;;;;15.90;10.27;;;2.60;84.60;;;;;;5064753;28;20452;-82
2021/04/26 04:42:35;;;;;;;17.80;13.57;;;2.70;84.50;;;;;;5059704;28;20208;-83
2021/04/26 04:45:03;;;;;;;19.37;14.17;;;2.80;84.00;;;;;;5037683;28;20221;-84
2021/04/26 04:47:32;;;;;;;14.47;12.10;;;2.80;83.80;;;;;;5052109;28;20604;-84
2021/04/26 04:50:00;;;;;;;16.13;11.87;;;2.80;83.40;;;;;;5063835;28;20638;-84
2021/04/26 04:52:28;;;;;;;15.83;13.90;;;2.90;83.30;;;;;;5058989;28;20202;-82
2021/04/26 04:54:56;;;;;;;14.57;10.80;;;2.90;83.40;;;;;;5054538;28;20225;-81
2021/04/26 04:57:27;;;;;;;13.60;10.00;;;3.00;83.00;;;;;;5063293;28;20245;-81
2021/04/26 04:59:55;;;;;;;13.97;10.37;;;3.10;82.80;;;;;;5068472;28;20789;-83
2021/04/26 05:02:22;;;;;;;14.57;10.27;;;3.10;82.80;;;;;;5071846;28;21298;-82
2021/04/26 05:04:53;;;;;;;12.23;9.53;;;3.20;82.60;;;;;;5048802;28;20693;-83
2021/04/26 05:07:24;;;;;;;8.90;7.30;;;3.20;82.50;;;;;;5044614;28;20276;-81
2021/04/26 05:09:52;;;;;;;15.20;9.80;;;3.20;81.70;;;;;;5052389;28;20252;-82
2021/04/26 05:12:20;;;;;;;13.13;10.67;;;3.30;81.80;;;;;;5056638;28;20282;-86
2021/04/26 05:14:51;;;;;;;12.40;10.03;;;3.40;82.00;;;;;;5040252;28;20228;-83
2021/04/26 05:17:24;;;;;;;12.00;9.97;;;3.60;81.60;;;;;;5041240;28;20300;-84
2021/04/26 05:19:53;;;;;;;14.40;10.10;;;3.70;81.40;;;;;;5051323;28;20786;-82
2021/04/26 05:22:21;;;;;;;10.00;7.20;;;3.90;81.30;;;;;;5053534;28;20395;-82
2021/04/26 05:24:53;;;;;;;10.20;7.10;;;3.90;80.80;;;;;;5035921;28;20245;-85
2021/04/26 05:27:21;;;;;;;9.47;6.40;;;3.90;80.10;;;;;;5039990;28;20234;-82
2021/04/26 05:29:51;;;;;;;9.80;7.13;;;3.90;80.10;;;;;;5050669;28;20197;-84
2021/04/26 05:32:19;;;;;;;9.50;6.67;;;3.90;80.10;;;;;;5047934;28;20195;-82
2021/04/26 05:34:50;;;;;;;12.47;6.77;;;4.10;79.90;;;;;;5034294;28;20226;-82
2021/04/26 05:37:22;;;;;;;7.77;5.50;;;4.00;79.80;;;;;;5034037;28;20256;-85
2021/04/26 05:39:50;;;;;;;7.43;5.90;;;3.90;79.40;;;;;;5039581;28;20200;-83
2021/04/26 05:42:19;;;;;;;4.83;4.00;;;4.00;79.70;;;;;;5049851;28;20194;-85
2021/04/26 05:44:47;;;;;;;7.97;4.53;;;4.10;79.40;;;;;;5051206;28;20236;-83
2021/04/26 05:47:20;;;;;;;7.47;4.00;;;4.10;79.20;;;;;;5053119;28;20231;-82
2021/04/26 05:49:48;;;;;;;9.30;4.30;;;4.30;78.90;;;;;;5049079;28;20437;-82
2021/04/26 05:52:18;;;;;;;8.40;5.70;;;4.30;79.10;;;;;;5061627;28;20209;-82
2021/04/26 05:54:50;;;;;;;8.63;4.87;;;4.50;79.20;;;;;;5048645;28;20244;-83
2021/04/26 05:57:19;;;;;;;7.73;4.80;;;4.50;79.20;;;;;;5121907;22;20311;-86
2021/04/26 05:59:47;;;;;;;6.60;4.80;;;4.60;79.70;;;;;;5054638;28;20195;-81
2021/04/26 06:02:18;;;;;;;7.37;4.87;;;4.70;79.50;;;;;;5058438;28;20222;-83
2021/04/26 06:04:46;;;;;;;5.17;4.40;;;4.60;79.70;;;;;;5040395;28;20216;-84
2021/04/26 06:07:17;;;;;;;12.40;7.47;;;4.70;80.20;;;;;;5022054;28;20211;-84
2021/04/26 06:09:45;;;;;;;6.50;3.90;;;4.80;80.20;;;;;;5058528;28;20497;-84
2021/04/26 06:12:14;;;;;;;6.77;3.50;;;4.90;79.80;;;;;;5053207;28;20214;-84
2021/04/26 06:14:41;;;;;;;4.27;3.67;;;5.00;79.80;;;;;;5037511;28;20217;-84
2021/04/26 06:17:10;;;;;;;3.57;2.90;;;5.10;79.80;;;;;;5034213;28;20225;-83
2021/04/26 06:19:41;;;;;;;5.53;3.70;;;5.30;79.30;;;;;;5050354;28;20178;-84
2021/04/26 06:22:10;;;;;;;6.03;4.17;;;5.30;79.20;;;;;;5050235;28;20416;-83
2021/04/26 06:24:37;;;;;;;7.90;4.83;;;5.30;78.90;;;;;;5024398;28;21138;-83
2021/04/26 06:27:08;;;;;;;5.77;3.70;;;5.30;78.80;;;;;;5009933;28;20362;-82
2021/04/26 06:29:39;;;;;;;6.83;3.20;;;5.30;78.50;;;;;;5039947;28;20213;-82
2021/04/26 06:32:07;;;;;;;6.67;3.63;;;5.30;78.20;;;;;;5046128;28;20194;-83
2021/04/26 06:34:35;;;;;;;5.40;3.00;;;5.30;78.20;;;;;;5019392;28;21186;-80
2021/04/26 06:37:04;;;;;;;5.60;3.83;;;5.20;78.60;;;;;;5009009;28;20382;-81
2021/04/26 06:39:32;;;;;;;6.37;3.40;;;5.40;78.70;;;;;;5040267;28;20522;-79
2021/04/26 06:42:00;;;;;;;5.60;3.40;;;5.40;78.40;;;;;;5035904;28;20520;-80
2021/04/26 06:44:29;;;;;;;7.30;3.43;;;5.50;78.30;;;;;;5020836;28;20214;-81
2021/04/26 06:46:56;;;;;;;4.73;2.43;;;5.70;78.40;;;;;;5014694;28;20349;-81
2021/04/26 06:49:25;;;;;;;3.93;2.30;;;5.90;77.30;;;;;;5034668;28;20198;-82
2021/04/26 06:51:56;;;;;;;3.23;1.60;;;5.70;77.20;;;;;;5041831;28;20225;-81
2021/04/26 06:54:23;;;;;;;2.40;1.83;;;5.50;76.60;;;;;;5010775;28;20407;-82
2021/04/26 06:56:51;;;;;;;2.30;1.93;;;5.50;76.90;;;;;;5013829;28;20225;-81
2021/04/26 06:59:19;;;;;;;3.57;2.23;;;5.70;76.40;;;;;;5038744;28;20452;-81
2021/04/26 07:01:47;;;;;;;3.10;1.80;;;5.80;77.00;;;;;;5042237;28;20222;-79
2021/04/26 07:04:16;;;;;;;3.20;1.53;;;6.10;77.00;;;;;;5025560;28;20336;-83
2021/04/26 07:06:44;;;;;;;1.13;1.10;;;6.50;76.50;;;;;;4987955;28;20241;-80
2021/04/26 07:09:11;;;;;;;1.33;1.10;;;6.60;74.40;;;;;;5046088;28;20179;-81
2021/04/26 07:11:45;;;;;;;1.73;1.30;;;6.40;74.10;;;;;;5052099;28;20194;-80
2021/04/26 07:14:14;;;;;;;1.87;1.57;;;6.70;74.00;;;;;;5021452;28;20232;-82
2021/04/26 07:16:43;;;;;;;2.00;1.80;;;6.80;73.80;;;;;;5014164;28;20257;-83
2021/04/26 07:19:12;;;;;;;1.90;1.57;;;7.20;73.70;;;;;;5045623;28;20188;-80
2021/04/26 07:21:40;;;;;;;1.83;1.40;;;7.50;72.90;;;;;;5044261;28;20284;-79
2021/04/26 07:24:09;;;;;;;1.60;1.50;;;7.30;70.90;;;;;;5033840;28;20262;-82
2021/04/26 07:26:40;;;;;;;2.17;1.70;;;7.10;71.60;;;;;;5008169;28;20768;-79
2021/04/26 07:29:08;;;;;;;2.13;1.40;;;6.90;72.30;;;;;;5030785;28;20207;-83
2021/04/26 07:31:35;;;;;;;3.10;1.40;;;6.80;71.90;;;;;;5047817;28;20245;-79
2021/04/26 07:34:03;;;;;;;1.30;1.20;;;6.70;71.40;;;;;;5033568;28;20227;-79
2021/04/26 07:36:32;;;;;;;1.70;1.47;;;6.40;70.40;;;;;;4992523;28;20297;-78
2021/04/26 07:39:00;;;;;;;2.43;1.60;;;6.10;71.70;;;;;;5039235;28;20515;-81
2021/04/26 07:41:27;;;;;;;2.47;1.50;;;6.00;71.50;;;;;;5028987;28;20293;-79
2021/04/26 07:43:55;;;;;;;3.27;1.67;;;5.90;71.10;;;;;;5033682;28;20206;-80
2021/04/26 07:46:24;;;;;;;2.43;1.17;;;6.10;70.50;;;;;;4971638;28;20873;-80
2021/04/26 07:48:51;;;;;;;1.60;1.40;;;6.00;69.50;;;;;;5032831;28;20206;-79
2021/04/26 07:51:19;;;;;;;1.30;1.20;;;6.00;69.20;;;;;;5046105;28;20194;-80
2021/04/26 07:53:48;;;;;;;2.23;1.30;;;6.10;69.00;;;;;;5036210;28;20211;-82
2021/04/26 07:56:17;;;;;;;1.77;1.23;;;6.20;68.30;;;;;;4968474;28;20691;-81
2021/04/26 07:58:45;;;;;;;5.23;1.67;;;6.10;68.80;;;;;;5022938;28;20735;-80
2021/04/26 08:01:13;;;;;;;1.77;1.13;;;5.90;68.00;;;;;;5032913;28;20303;-81
2021/04/26 08:03:40;;;;;;;1.30;1.20;;;5.80;66.50;;;;;;5033847;28;20520;-80
2021/04/26 08:06:08;;;;;;;3.03;1.33;;;5.80;66.50;;;;;;4973045;28;20214;-83
2021/04/26 08:08:35;;;;;;;2.03;1.30;;;5.90;66.90;;;;;;5040130;28;20199;-80
2021/04/26 08:11:04;;;;;;;2.60;1.07;;;6.40;67.80;;;;;;5041058;28;20213;-80
2021/04/26 08:13:31;;;;;;;1.93;1.40;;;6.60;66.10;;;;;;5038956;28;20360;-79
2021/04/26 08:16:00;;;;;;;2.27;1.40;;;6.50;66.50;;;;;;4980355;28;20237;-80
2021/04/26 08:18:27;;;;;;;1.30;1.20;;;6.80;67.60;;;;;;5030184;28;20226;-80
2021/04/26 08:20:55;;;;;;;2.47;1.20;;;7.10;66.30;;;;;;5040762;28;20394;-81
2021/04/26 08:23:24;;;;;;;1.77;1.37;;;7.30;65.80;;;;;;5043752;28;20198;-82
2021/04/26 08:25:52;;;;;;;2.70;1.53;;;7.50;65.60;;;;;;4983384;28;20471;-81
2021/04/26 08:28:21;;;;;;;2.27;1.30;;;7.40;64.90;;;;;;5041559;28;20215;-79
2021/04/26 08:30:49;;;;;;;1.60;1.37;;;7.60;66.10;;;;;;5042738;28;20204;-82
2021/04/26 08:33:18;;;;;;;2.40;1.40;;;7.60;65.10;;;;;;5045903;28;21250;-82
2021/04/26 08:35:47;;;;;;;2.10;1.20;;;7.50;63.80;;;;;;4992644;28;20481;-83
2021/04/26 08:38:15;;;;;;;2.77;1.40;;;6.90;62.60;;;;;;5035778;28;20210;-82
2021/04/26 08:40:43;;;;;;;1.83;1.00;;;6.80;62.50;;;;;;5045431;28;20230;-80
2021/04/26 08:43:18;;;;;;;1.40;1.10;;;6.70;61.90;;;;;;5042221;28;20198;-81
2021/04/26 08:45:47;;;;;;;0.93;0.93;;;6.70;62.40;;;;;;4993185;28;20222;-82
2021/04/26 08:48:17;;;;;;;1.47;0.93;;;6.90;61.70;;;;;;5045745;28;20230;-82
2021/04/26 08:50:45;;;;;;;1.20;1.10;;;7.20;62.60;;;;;;5050115;28;20206;-81
2021/04/26 08:53:13;;;;;;;1.07;1.03;;;7.70;62.20;;;;;;5047531;28;20739;-84
2021/04/26 08:55:41;;;;;;;1.53;0.90;;;8.00;62.10;;;;;;4988377;28;20246;-83
2021/04/26 08:58:09;;;;;;;1.87;1.10;;;8.10;59.00;;;;;;5022163;28;20237;-81
2021/04/26 09:00:36;;;;;;;1.60;1.20;;;8.10;60.50;;;;;;5032609;28;20672;-80
2021/04/26 09:03:07;;;;;;;1.13;1.03;;;8.20;59.00;;;;;;5037634;28;20520;-80
2021/04/26 09:05:38;;;;;;;1.30;1.20;;;8.00;56.60;;;;;;4986645;28;20280;-79
2021/04/26 09:08:10;;;;;;;1.60;1.17;;;7.70;54.30;;;;;;5022714;28;20289;-81
2021/04/26 09:10:44;;;;;;;1.67;1.10;;;7.60;50.90;;;;;;5041172;28;20205;-79
2021/04/26 09:13:25;;;;;;;1.77;0.90;;;7.70;50.90;;;;;;5040576;28;20528;-81
2021/04/26 09:15:55;;;;;;;1.47;1.03;;;8.00;50.10;;;;;;4980227;28;20920;-82
2021/04/26 09:18:54;;;;;;;1.17;1.00;;;8.10;53.00;;;;;;5033979;28;21006;-81
2021/04/26 09:21:25;;;;;;;1.10;1.00;;;8.20;51.30;;;;;;5034300;28;20495;-81
2021/04/26 09:24:18;;;;;;;1.20;1.10;;;7.70;51.80;;;;;;5016963;28;20910;-81
2021/04/26 09:26:48;;;;;;;1.70;1.13;;;7.40;52.70;;;;;;5005990;28;20239;-78
2021/04/26 09:29:19;;;;;;;3.33;1.70;;;7.20;53.00;;;;;;5038059;28;20571;-79
2021/04/26 09:32:05;;;;;;;3.77;1.30;;;7.10;53.60;;;;;;5033478;28;20538;-82
2021/04/26 09:34:36;;;;;;;0.87;0.87;;;7.40;54.40;;;;;;4995210;28;20360;-81
2021/04/26 09:37:14;;;;;;;1.90;1.20;;;7.70;52.40;;;;;;4989159;28;20567;-81
2021/04/26 09:40:02;;;;;;;1.43;1.20;;;7.80;51.70;;;;;;5019465;28;20218;-79
2021/04/26 09:42:39;;;;;;;1.50;1.20;;;8.50;51.70;;;;;;5018308;28;20213;-83
2021/04/26 09:45:20;;;;;;;1.70;1.20;;;9.00;51.60;;;;;;4978877;28;20684;-80
2021/04/26 09:47:48;;;;;;;2.03;1.00;;;9.10;48.90;;;;;;5006561;28;20232;-81
2021/04/26 09:50:17;;;;;;;1.77;1.50;;;9.00;46.80;;;;;;5031210;28;20307;-81
2021/04/26 09:52:45;;;;;;;2.10;1.23;;;8.80;47.00;;;;;;5034054;28;20205;-80
2021/04/26 09:55:31;;;;;;;1.40;1.27;;;8.80;48.70;;;;;;4980590;28;20257;-80
2021/04/26 09:57:59;;;;;;;1.30;1.10;;;8.90;48.10;;;;;;4974265;28;20322;-80
2021/04/26 10:00:28;;;;;;;2.80;1.10;;;8.80;47.70;;;;;;5022055;28;20214;-81
2021/04/26 10:02:56;;;;;;;2.23;1.20;;;8.90;49.20;;;;;;5049018;28;20209;-81
2021/04/26 10:05:26;;;;;;;4.00;1.10;;;9.00;45.00;;;;;;5032261;28;20252;-83
2021/04/26 10:07:55;;;;;;;1.57;1.47;;;8.90;46.20;;;;;;5025776;28;20773;-80
2021/04/26 10:10:23;;;;;;;2.20;1.40;;;8.70;46.10;;;;;;5038857;28;20262;-80
2021/04/26 10:12:51;;;;;;;1.70;1.37;;;8.60;47.20;;;;;;5032306;28;20210;-80
2021/04/26 10:15:26;;;;;;;2.00;1.23;;;8.60;47.80;;;;;;5023234;28;20314;-81
2021/04/26 10:17:56;;;;;;;4.60;1.90;;;8.10;49.20;;;;;;5023394;28;20256;-83
2021/04/26 10:20:34;;;;;;;2.53;1.37;;;7.90;50.40;;;;;;5013147;28;20470;-81
2021/04/26 10:23:03;;;;;;;1.80;1.37;;;7.70;50.80;;;;;;5033824;28;20888;-82
2021/04/26 10:25:40;;;;;;;1.23;1.20;;;7.50;50.80;;;;;;5032891;28;20204;-82
2021/04/26 10:28:28;;;;;;;1.80;1.40;;;7.30;51.10;;;;;;5023258;28;20488;-83
2021/04/26 10:31:01;;;;;;;2.00;1.63;;;7.40;52.00;;;;;;5025033;28;20483;-81
2021/04/26 10:33:55;;;;;;;1.30;1.20;;;7.60;49.70;;;;;;5026943;28;20206;-82
2021/04/26 10:36:43;;;;;;;0.90;0.90;;;7.90;48.00;;;;;;5023575;28;20261;-81
2021/04/26 10:39:14;;;;;;;1.27;1.17;;;8.10;44.40;;;;;;5028028;28;20251;-81
2021/04/26 10:42:10;;;;;;;1.03;0.93;;;8.10;44.70;;;;;;5032413;28;20272;-84
2021/04/26 10:44:51;;;;;;;1.27;1.17;;;8.40;47.00;;;;;;5026280;28;20260;-81
2021/04/26 10:47:27;;;;;;;1.90;1.40;;;8.60;47.00;;;;;;5031558;28;20213;-82
2021/04/26 10:50:27;;;;;;;1.80;1.10;;;8.50;46.10;;;;;;5022699;28;20209;-82
2021/04/26 10:52:59;;;;;;;2.07;1.20;;;8.80;45.70;;;;;;5021917;28;20195;-82
2021/04/26 10:55:52;;;;;;;1.30;1.00;;;9.00;44.70;;;;;;5030243;28;20222;-80
2021/04/26 10:58:24;;;;;;;1.40;0.93;;;9.20;43.00;;;;;;5026112;28;20782;-83
2021/04/26 11:00:52;;;;;;;2.83;1.10;;;9.20;42.50;;;;;;5023869;28;20323;-82
2021/04/26 11:03:39;;;;;;;1.70;1.00;;;9.20;42.20;;;;;;5026043;28;20236;-83
2021/04/26 11:06:16;;;;;;;2.40;1.00;;;9.20;41.60;;;;;;5026315;28;20213;-80
2021/04/26 11:08:49;;;;;;;2.10;1.20;;;9.30;42.00;;;;;;5041573;28;20202;-83
2021/04/26 11:11:19;;;;;;;2.00;1.23;;;9.00;41.70;;;;;;5030085;28;20413;-81
2021/04/26 11:13:54;;;;;;;2.23;1.30;;;8.90;42.70;;;;;;5023999;28;20526;-81
2021/04/26 11:16:57;;;;;;;2.23;1.30;;;8.90;45.10;;;;;;5024693;28;20471;-79
2021/04/26 11:19:26;;;;;;;2.40;1.60;;;9.20;45.80;;;;;;5034453;28;20427;-83
2021/04/26 11:22:04;;;;;;;2.43;1.40;;;9.00;45.90;;;;;;5028988;28;20225;-83
2021/04/26 11:25:04;;;;;;;2.17;1.30;;;9.40;47.50;;;;;;5044845;28;20807;-80
2021/04/26 11:27:40;;;;;;;1.50;1.40;;;9.40;44.00;;;;;;5039725;28;20203;-79
2021/04/26 11:30:29;;;;;;;2.83;1.30;;;9.30;45.10;;;;;;5043664;28;20271;-82
2021/04/26 11:33:18;;;;;;;1.70;1.30;;;9.40;45.10;;;;;;5038114;28;20493;-82
2021/04/26 11:36:21;;;;;;;1.97;1.20;;;9.40;44.90;;;;;;5045748;28;20226;-81
2021/04/26 11:39:02;;;;;;;1.47;1.30;;;9.50;44.60;;;;;;5041121;28;20454;-82
2021/04/26 11:41:41;;;;;;;1.37;1.27;;;9.20;44.90;;;;;;5053183;28;20190;-79
2021/04/26 11:44:14;;;;;;;2.53;1.90;;;9.00;44.40;;;;;;5046628;28;20206;-80
2021/04/26 11:46:41;;;;;;;2.40;1.40;;;8.90;45.70;;;;;;5053193;28;20240;-81
2021/04/26 11:49:20;;;;;;;3.07;1.40;;;8.40;45.80;;;;;;5052853;28;20198;-79
2021/04/26 11:51:48;;;;;;;4.80;2.30;;;8.20;47.30;;;;;;5052223;28;20260;-80
2021/04/26 11:54:18;;;;;;;5.13;2.07;;;8.20;50.20;;;;;;5053144;28;20221;-81
2021/04/26 11:57:05;;;;;;;6.10;2.50;;;8.10;53.20;;;;;;5050460;28;20205;-82
2021/04/26 11:59:33;;;;;;;3.37;2.30;;;8.10;55.20;;;;;;5053372;28;20196;-81
2021/04/26 12:02:02;;;;;;;2.60;2.00;;;7.80;56.00;;;;;;5052489;28;20179;-81
2021/04/26 12:04:36;;;;;;;2.90;2.00;;;7.60;56.90;;;;;;5051889;28;20211;-81
2021/04/26 12:07:04;;;;;;;2.80;2.53;;;7.70;58.80;;;;;;5046679;28;20923;-82
2021/04/26 12:09:32;;;;;;;5.40;2.17;;;7.50;58.00;;;;;;5048939;28;20199;-80
2021/04/26 12:12:02;;;;;;;4.13;2.50;;;7.40;57.00;;;;;;5041959;28;20254;-80
2021/04/26 12:14:30;;;;;;;3.23;2.53;;;7.40;58.60;;;;;;5037249;28;20463;-81
2021/04/26 12:17:14;;;;;;;2.63;2.30;;;7.70;60.10;;;;;;5036916;28;20289;-83
2021/04/26 12:19:43;;;;;;;2.13;1.93;;;7.70;57.30;;;;;;5041231;28;20204;-81
2021/04/26 12:22:11;;;;;;;2.83;2.10;;;7.80;55.00;;;;;;5047520;28;20192;-79
2021/04/26 12:24:41;;;;;;;3.10;2.10;;;7.80;55.10;;;;;;5047343;28;20663;-82
2021/04/26 12:27:13;;;;;;;1.83;1.73;;;7.90;53.10;;;;;;5044517;28;20926;-80
2021/04/26 12:29:43;;;;;;;4.33;2.20;;;7.90;53.60;;;;;;5053253;28;20205;-82
2021/04/26 12:32:12;;;;;;;3.17;1.80;;;8.00;54.50;;;;;;5052951;28;20208;-83
2021/04/26 12:34:52;;;;;;;1.80;1.70;;;8.20;54.90;;;;;;5050553;28;20194;-83
2021/04/26 12:37:21;;;;;;;1.70;1.60;;;8.40;52.50;;;;;;5049435;28;20193;-81
2021/04/26 12:39:49;;;;;;;3.90;1.80;;;8.30;52.20;;;;;;5054238;28;20749;-81
2021/04/26 12:42:19;;;;;;;3.43;1.87;;;8.30;51.30;;;;;;5048301;28;20221;-83
2021/04/26 12:44:49;;;;;;;2.33;2.10;;;8.30;51.90;;;;;;5053122;28;20268;-81
2021/04/26 12:47:23;;;;;;;2.30;2.10;;;8.30;52.70;;;;;;5043657;28;20513;-83
2021/04/26 12:50:12;;;;;;;3.47;1.67;;;8.60;53.60;;;;;;5051175;28;20391;-80
2021/04/26 12:52:40;;;;;;;2.77;1.50;;;8.70;49.00;;;;;;5048629;28;20202;-82
2021/04/26 12:55:11;;;;;;;2.57;1.60;;;8.80;50.00;;;;;;5041010;28;20229;-82
2021/04/26 12:57:39;;;;;;;3.77;1.70;;;9.00;47.90;;;;;;5040858;28;20411;-79
2021/04/26 13:00:09;;;;;;;2.70;1.73;;;9.20;49.00;;;;;;5034712;28;20210;-81
2021/04/26 13:02:37;;;;;;;2.67;1.70;;;9.30;50.20;;;;;;5030749;28;20372;-82
2021/04/26 13:05:06;;;;;;;3.57;1.83;;;9.40;50.20;;;;;;5040916;28;20202;-82
2021/04/26 13:07:33;;;;;;;1.53;1.40;;;9.50;50.20;;;;;;5032432;28;20657;-81
2021/04/26 13:10:07;;;;;;;2.33;1.70;;;9.60;48.20;;;;;;5044048;28;20204;-80
2021/04/26 13:12:34;;;;;;;4.23;1.90;;;9.80;48.80;;;;;;5033049;28;20515;-82